Time;durP1;ratioP1;P1;durP2;ratioP2;P2;SDS_P1;SDS_P2;PMS_P1;PMS_P2;Temp;Humidity;BMP_temperature;BMP_pressure;BME280_temperature;BME280_humidity;BME280_pressure;Samples;Min_cycle;Max_cycle;Signal;HPM_P1;HPM_P2
2023/12/24 00:01:11;;;;;;;2.20;1.77;;;16.40;71.20;17.40;100122.00;;;;5073730;28;20230;-47
2023/12/24 00:03:37;;;;;;;2.57;2.10;;;16.40;71.20;17.40;100123.00;;;;5075567;28;20548;-47
2023/12/24 00:06:04;;;;;;;3.07;2.00;;;16.40;71.20;17.40;100124.00;;;;5036200;28;20175;-47
2023/12/24 00:08:29;;;;;;;3.50;1.97;;;16.30;71.20;17.40;100106.00;;;;5070982;28;20174;-47
2023/12/24 00:10:56;;;;;;;3.97;1.93;;;16.30;71.20;17.40;100113.00;;;;5073133;28;20216;-47
2023/12/24 00:13:22;;;;;;;3.50;1.93;;;16.30;71.20;17.40;100108.00;;;;5074004;28;20242;-47
2023/12/24 00:15:48;;;;;;;2.00;1.80;;;16.30;71.20;17.40;100122.00;;;;5068505;28;20186;-47
2023/12/24 00:18:14;;;;;;;3.07;1.90;;;16.30;71.10;17.40;100128.00;;;;5073349;28;20181;-46
2023/12/24 00:20:40;;;;;;;3.07;1.80;;;16.30;71.20;17.40;100115.00;;;;5075540;28;20288;-47
2023/12/24 00:23:09;;;;;;;2.27;1.80;;;16.30;72.00;17.40;100114.00;;;;5076971;28;20698;-47
2023/12/24 00:25:35;;;;;;;2.80;1.90;;;16.30;71.20;17.40;100112.00;;;;5071517;28;20181;-47
2023/12/24 00:28:01;;;;;;;2.00;1.80;;;16.30;71.20;17.40;100115.00;;;;5073394;28;20182;-47
2023/12/24 00:30:27;;;;;;;3.97;1.83;;;16.30;71.20;17.30;100106.00;;;;5072945;28;20714;-48
2023/12/24 00:32:57;;;;;;;2.03;1.83;;;16.30;71.20;17.30;100109.00;;;;5080071;28;20182;-48
2023/12/24 00:35:23;;;;;;;2.97;2.00;;;16.30;71.20;17.30;100116.00;;;;5078109;28;20199;-47
2023/12/24 00:37:49;;;;;;;2.20;1.80;;;16.20;71.10;17.30;100105.00;;;;5073126;28;20212;-47
2023/12/24 00:40:16;;;;;;;2.00;1.70;;;16.30;71.20;17.30;100104.00;;;;5072817;28;20924;-47
2023/12/24 00:42:42;;;;;;;2.67;1.80;;;16.30;71.10;17.30;100108.00;;;;5055074;28;20226;-46
2023/12/24 00:45:09;;;;;;;1.87;1.70;;;16.30;71.20;17.30;100111.00;;;;5079366;28;20188;-47
2023/12/24 00:47:35;;;;;;;3.77;1.90;;;16.20;71.10;17.30;100123.00;;;;5076016;28;20179;-47
2023/12/24 00:50:00;;;;;;;3.07;1.87;;;16.20;71.10;17.30;100117.00;;;;5072581;28;20823;-48
2023/12/24 00:52:26;;;;;;;1.63;1.53;;;16.20;71.10;17.30;100101.00;;;;5072840;28;20183;-47
2023/12/24 00:54:52;;;;;;;2.17;1.67;;;16.20;71.10;17.30;100111.00;;;;5075502;28;20181;-47
2023/12/24 00:57:17;;;;;;;1.67;1.43;;;16.20;71.20;17.20;100105.00;;;;5072199;28;20171;-47
2023/12/24 00:59:43;;;;;;;1.73;1.63;;;16.20;71.20;17.10;100104.00;;;;5071434;28;20231;-47
2023/12/24 01:02:09;;;;;;;2.13;1.83;;;16.20;71.30;17.00;100117.00;;;;5073827;28;20188;-47
2023/12/24 01:04:35;;;;;;;2.80;1.80;;;16.20;71.20;17.20;100101.00;;;;5069632;28;20195;-47
2023/12/24 01:07:00;;;;;;;2.03;1.60;;;16.20;71.10;17.20;100105.00;;;;5071422;28;20173;-47
2023/12/24 01:09:26;;;;;;;1.60;1.50;;;16.20;71.10;17.20;100109.00;;;;5071296;28;20207;-47
2023/12/24 01:11:53;;;;;;;1.93;1.67;;;16.20;71.10;17.20;100112.00;;;;5050587;28;20210;-48
2023/12/24 01:14:19;;;;;;;1.90;1.47;;;16.20;71.20;17.20;100098.00;;;;5076401;28;20184;-47
2023/12/24 01:16:45;;;;;;;1.50;1.40;;;16.20;71.20;17.20;100107.00;;;;5072207;28;20243;-46
2023/12/24 01:19:10;;;;;;;1.97;1.60;;;16.10;71.10;17.20;100089.00;;;;5071263;28;20256;-47
2023/12/24 01:21:36;;;;;;;2.00;1.53;;;16.10;71.10;17.20;100086.00;;;;5073128;28;20551;-47
2023/12/24 01:24:02;;;;;;;2.00;1.67;;;16.20;71.10;17.20;100132.00;;;;5075513;28;20245;-46
2023/12/24 01:26:28;;;;;;;1.60;1.50;;;16.10;71.80;17.20;100110.00;;;;5046506;28;20242;-46
2023/12/24 01:28:53;;;;;;;1.93;1.77;;;16.10;71.00;17.20;100102.00;;;;5074808;28;20603;-46
2023/12/24 01:31:20;;;;;;;2.07;1.70;;;16.10;71.00;17.20;100104.00;;;;5078932;28;20176;-48
2023/12/24 01:33:45;;;;;;;1.87;1.73;;;16.10;71.00;17.20;100102.00;;;;5074795;28;20182;-47
2023/12/24 01:36:11;;;;;;;2.00;1.33;;;16.10;71.00;17.20;100106.00;;;;5072425;28;20175;-47
2023/12/24 01:38:37;;;;;;;1.80;1.70;;;16.10;71.10;17.10;100091.00;;;;5072698;28;20224;-46
2023/12/24 01:41:03;;;;;;;1.70;1.60;;;16.10;71.10;17.20;100101.00;;;;5074374;28;20218;-46
2023/12/24 01:43:28;;;;;;;1.43;1.33;;;16.10;71.10;17.10;100086.00;;;;5068222;28;20183;-46
2023/12/24 01:45:54;;;;;;;2.10;1.70;;;16.10;71.10;17.10;100007.00;;;;5070719;28;20187;-46
2023/12/24 01:48:21;;;;;;;1.40;1.30;;;16.00;71.90;17.10;100085.00;;;;5044422;28;20234;-46
2023/12/24 01:50:47;;;;;;;1.83;1.60;;;16.00;71.80;17.10;100088.00;;;;5052700;28;20258;-47
2023/12/24 01:53:14;;;;;;;2.00;1.47;;;16.00;71.90;17.10;100053.00;;;;5046368;28;20178;-47
2023/12/24 01:55:40;;;;;;;1.70;1.50;;;16.00;71.90;17.10;100089.00;;;;5052104;28;20193;-46
2023/12/24 01:58:06;;;;;;;1.47;1.30;;;16.00;71.90;17.10;100067.00;;;;5073656;28;20632;-47
2023/12/24 02:00:31;;;;;;;1.50;1.40;;;16.00;71.90;17.10;100055.00;;;;5068844;28;20256;-47
2023/12/24 02:02:58;;;;;;;1.00;1.00;;;16.00;71.80;17.10;100052.00;;;;5070486;28;20197;-46
2023/12/24 02:05:25;;;;;;;1.57;1.43;;;16.00;71.70;17.10;100028.00;;;;5044380;28;20182;-47
2023/12/24 02:07:51;;;;;;;1.77;1.60;;;16.00;71.70;17.10;100041.00;;;;5078067;28;20261;-47
2023/12/24 02:10:18;;;;;;;1.50;1.40;;;15.90;71.40;17.10;100033.00;;;;5074403;28;20667;-47
2023/12/24 02:12:44;;;;;;;1.60;1.50;;;16.00;71.60;17.10;100023.00;;;;5073846;28;20944;-47
2023/12/24 02:15:09;;;;;;;1.47;1.37;;;16.00;71.60;17.10;100014.00;;;;5074372;28;20218;-47
2023/12/24 02:17:35;;;;;;;1.83;1.50;;;16.00;71.50;17.10;100011.00;;;;5055022;28;20211;-47
2023/12/24 02:20:01;;;;;;;1.40;1.30;;;16.00;71.50;17.00;100012.00;;;;5040555;28;20226;-47
2023/12/24 02:22:27;;;;;;;1.50;1.40;;;16.00;72.30;17.00;100018.00;;;;5074578;28;20566;-47
2023/12/24 02:24:54;;;;;;;1.83;1.57;;;15.90;71.40;17.00;100023.00;;;;5059467;28;20217;-47
2023/12/24 02:27:28;;;;;;;1.17;1.17;;;15.90;71.40;17.00;100033.00;;;;5049476;28;20186;-48
2023/12/24 02:29:56;;;;;;;1.87;1.50;;;16.00;71.50;17.00;100022.00;;;;5045730;28;20212;-47
2023/12/24 02:32:22;;;;;;;1.40;1.30;;;16.00;71.50;17.00;100024.00;;;;5048106;28;20185;-46
2023/12/24 02:34:50;;;;;;;1.50;1.33;;;16.00;71.50;17.00;100033.00;;;;5024193;28;20180;-47
2023/12/24 02:37:16;;;;;;;1.33;1.23;;;16.00;71.40;17.00;100006.00;;;;5051236;28;20234;-51
2023/12/24 02:39:42;;;;;;;1.70;1.20;;;16.00;71.50;17.00;100000.00;;;;5028887;28;20209;-47
2023/12/24 02:42:08;;;;;;;1.30;1.20;;;16.00;71.40;17.00;100007.00;;;;5047952;28;20184;-47
2023/12/24 02:44:38;;;;;;;1.33;1.23;;;15.90;71.40;17.00;100005.00;;;;5075329;28;20176;-46
2023/12/24 02:47:04;;;;;;;1.37;1.27;;;15.90;71.50;17.00;100003.00;;;;5077324;28;20222;-46
2023/12/24 02:49:30;;;;;;;1.33;1.23;;;15.90;71.70;17.00;99990.00;;;;5073853;28;20273;-46
2023/12/24 02:51:56;;;;;;;1.30;1.20;;;15.90;71.70;17.00;99992.00;;;;5052130;28;20174;-46
2023/12/24 02:54:21;;;;;;;1.50;1.40;;;15.80;71.60;17.00;99989.00;;;;5073573;28;20183;-46
2023/12/24 02:56:47;;;;;;;1.53;1.30;;;15.80;71.70;17.00;99991.00;;;;5076848;28;20177;-47
2023/12/24 02:59:13;;;;;;;1.40;1.30;;;15.80;71.70;17.00;99989.00;;;;5069690;28;20231;-46
2023/12/24 03:01:38;;;;;;;1.10;1.07;;;15.80;71.70;17.00;99988.00;;;;5073172;28;20208;-46
2023/12/24 03:04:04;;;;;;;1.20;1.10;;;15.80;71.80;17.00;99978.00;;;;5080222;28;20215;-46
2023/12/24 03:06:30;;;;;;;1.20;1.03;;;15.80;72.00;16.90;99972.00;;;;5073433;28;20178;-46
2023/12/24 03:08:56;;;;;;;1.30;1.20;;;15.80;71.90;17.00;99966.00;;;;5072939;28;20189;-46
2023/12/24 03:11:21;;;;;;;1.30;1.20;;;15.80;71.90;16.90;99974.00;;;;5077448;28;20195;-46
2023/12/24 03:13:48;;;;;;;1.30;1.20;;;15.80;71.70;16.90;99969.00;;;;5079331;28;20183;-47
2023/12/24 03:16:13;;;;;;;1.17;1.10;;;15.80;71.70;16.90;99968.00;;;;5074444;28;20180;-46
2023/12/24 03:18:39;;;;;;;1.30;1.20;;;15.80;71.90;16.90;99966.00;;;;5071081;28;20172;-46
2023/12/24 03:21:05;;;;;;;1.20;1.10;;;15.90;71.90;16.90;99957.00;;;;5078400;28;20570;-46
2023/12/24 03:23:30;;;;;;;1.30;1.20;;;15.80;71.80;16.90;99966.00;;;;5071393;28;20187;-47
2023/12/24 03:25:56;;;;;;;1.27;1.20;;;15.80;72.00;16.90;99908.00;;;;5076391;28;20765;-47
2023/12/24 03:28:22;;;;;;;1.23;1.13;;;15.80;71.90;16.90;99952.00;;;;5071974;28;20239;-46
2023/12/24 03:30:48;;;;;;;1.10;1.00;;;15.80;72.00;16.90;99963.00;;;;5072505;28;20207;-46
2023/12/24 03:33:13;;;;;;;1.23;1.13;;;15.80;72.00;16.90;99953.00;;;;5072723;28;20177;-47
2023/12/24 03:35:40;;;;;;;1.27;1.13;;;15.80;72.00;16.90;99953.00;;;;5078471;28;20184;-47
2023/12/24 03:38:06;;;;;;;0.87;0.87;;;15.80;72.00;16.90;99960.00;;;;5072912;28;20823;-47
2023/12/24 03:40:32;;;;;;;1.20;1.10;;;15.70;71.90;16.90;99961.00;;;;5076391;28;20205;-46
2023/12/24 03:42:57;;;;;;;1.03;1.03;;;15.70;71.90;16.90;99945.00;;;;5082988;28;20175;-47
2023/12/24 03:45:23;;;;;;;1.13;1.03;;;15.80;72.00;16.90;99948.00;;;;5078784;28;20692;-47
2023/12/24 03:47:49;;;;;;;1.30;1.20;;;15.70;72.00;16.90;99941.00;;;;5076091;28;20188;-47
2023/12/24 03:50:15;;;;;;;1.20;1.10;;;15.70;72.00;16.90;99943.00;;;;5078055;28;20612;-47
2023/12/24 03:52:41;;;;;;;0.90;0.90;;;15.70;72.00;16.90;99943.00;;;;5050469;28;20177;-47
2023/12/24 03:55:07;;;;;;;1.43;1.07;;;15.70;72.00;16.80;99938.00;;;;5072371;28;20171;-47
2023/12/24 03:57:32;;;;;;;1.00;1.00;;;15.70;71.90;16.80;99933.00;;;;5073315;28;20653;-46
2023/12/24 03:59:58;;;;;;;1.03;1.03;;;15.70;71.90;16.90;99941.00;;;;5076606;28;20194;-47
2023/12/24 04:02:24;;;;;;;1.03;1.03;;;15.70;71.90;16.80;99921.00;;;;5071140;28;20644;-48
2023/12/24 04:04:50;;;;;;;1.20;1.10;;;15.70;72.00;16.80;99926.00;;;;5067809;28;20186;-47
2023/12/24 04:07:16;;;;;;;1.10;1.10;;;15.70;72.80;16.90;99937.00;;;;5046891;28;20181;-48
2023/12/24 04:09:42;;;;;;;1.10;1.10;;;15.70;72.00;16.80;99925.00;;;;5054481;28;20330;-47
2023/12/24 04:12:08;;;;;;;1.00;1.00;;;15.70;72.00;16.80;99933.00;;;;5075538;28;20248;-47
2023/12/24 04:14:40;;;;;;;0.90;0.90;;;15.70;71.90;16.80;99928.00;;;;5078259;28;20187;-47
2023/12/24 04:17:06;;;;;;;0.93;0.93;;;15.70;72.10;16.80;99922.00;;;;5073141;28;20314;-48
2023/12/24 04:19:32;;;;;;;1.13;1.07;;;15.70;72.80;16.80;99921.00;;;;5073498;28;20800;-48
2023/12/24 04:21:58;;;;;;;1.20;1.07;;;15.70;72.00;16.80;99930.00;;;;5076577;28;20195;-47
2023/12/24 04:24:24;;;;;;;1.07;0.97;;;15.70;72.10;16.80;99926.00;;;;5070845;28;20180;-46
2023/12/24 04:26:50;;;;;;;1.20;1.07;;;15.70;72.30;16.80;99921.00;;;;5072885;28;20176;-46
2023/12/24 04:29:15;;;;;;;3.90;1.43;;;15.70;72.70;16.80;99919.00;;;;5072781;28;20198;-48
2023/12/24 04:31:41;;;;;;;1.00;1.00;;;15.70;72.80;16.80;99912.00;;;;5074699;28;20682;-47
2023/12/24 04:34:07;;;;;;;0.97;0.97;;;15.70;72.70;16.80;99914.00;;;;5074057;28;20177;-46
2023/12/24 04:36:34;;;;;;;1.23;1.13;;;15.70;72.30;16.80;99920.00;;;;5073375;28;20552;-46
2023/12/24 04:38:59;;;;;;;3.33;1.10;;;15.70;72.30;16.80;99920.00;;;;5050283;28;20710;-46
2023/12/24 04:41:28;;;;;;;2.90;1.27;;;15.70;72.30;16.80;99916.00;;;;5072745;28;20249;-46
2023/12/24 04:43:55;;;;;;;1.43;1.30;;;15.70;72.20;16.80;99906.00;;;;5072795;28;20189;-47
2023/12/24 04:46:21;;;;;;;1.53;1.03;;;15.70;72.20;16.80;99900.00;;;;5071364;28;20180;-46
2023/12/24 04:48:46;;;;;;;3.30;1.50;;;15.70;72.00;16.70;99905.00;;;;5072671;28;20258;-47
2023/12/24 04:51:12;;;;;;;2.03;0.90;;;15.70;71.90;16.80;99883.00;;;;5073641;28;20182;-47
2023/12/24 04:53:38;;;;;;;3.33;1.07;;;15.70;72.00;16.80;99910.00;;;;5074696;28;20235;-47
2023/12/24 04:56:04;;;;;;;1.10;1.00;;;15.70;71.90;16.50;99902.00;;;;5049821;28;20177;-46
2023/12/24 04:58:30;;;;;;;0.90;0.90;;;15.70;72.30;16.70;99913.00;;;;5070428;28;20585;-46
2023/12/24 05:00:57;;;;;;;1.07;1.00;;;15.70;72.00;16.70;99886.00;;;;5071689;28;20193;-46
2023/12/24 05:03:22;;;;;;;0.90;0.90;;;15.80;72.00;16.70;99908.00;;;;5072022;28;20167;-49
2023/12/24 05:05:48;;;;;;;2.10;1.10;;;15.70;71.90;16.70;99909.00;;;;5054406;28;20200;-47
2023/12/24 05:08:14;;;;;;;0.77;0.77;;;15.60;71.80;16.70;99900.00;;;;5072466;28;20176;-46
2023/12/24 05:10:40;;;;;;;2.10;0.80;;;15.70;71.90;16.70;99894.00;;;;5069804;28;20240;-46
2023/12/24 05:13:06;;;;;;;2.27;0.80;;;15.70;72.00;16.70;99895.00;;;;5071579;28;20251;-46
2023/12/24 05:15:31;;;;;;;2.23;1.07;;;15.60;71.70;16.70;99890.00;;;;5072406;28;20175;-47
2023/12/24 05:17:57;;;;;;;4.53;1.23;;;15.70;71.90;16.70;99887.00;;;;5033215;28;20179;-47
2023/12/24 05:20:23;;;;;;;2.23;1.23;;;15.60;71.70;16.70;99883.00;;;;5071110;28;20226;-47
2023/12/24 05:22:49;;;;;;;3.03;1.10;;;15.60;71.80;16.70;99878.00;;;;5053898;28;20291;-46
2023/12/24 05:25:15;;;;;;;1.53;1.13;;;15.60;71.80;16.70;99887.00;;;;5071936;28;20182;-46
2023/12/24 05:27:41;;;;;;;0.67;0.60;;;15.60;71.80;16.70;99889.00;;;;5043576;28;20196;-46
2023/12/24 05:30:07;;;;;;;1.73;1.00;;;15.60;71.80;16.70;99884.00;;;;5073400;28;20213;-47
2023/12/24 05:32:33;;;;;;;1.83;1.07;;;15.60;71.90;16.70;99890.00;;;;5068705;28;20654;-46
2023/12/24 05:34:59;;;;;;;0.90;0.90;;;15.60;71.70;16.70;99876.00;;;;5077619;28;20180;-47
2023/12/24 05:37:25;;;;;;;2.40;1.23;;;15.60;71.90;16.60;99890.00;;;;5045606;28;20181;-46
2023/12/24 05:39:50;;;;;;;1.13;1.00;;;15.60;72.10;16.70;99880.00;;;;5074526;28;20200;-47
2023/12/24 05:42:16;;;;;;;2.00;1.20;;;15.60;72.10;16.70;99893.00;;;;5072645;28;20181;-46
2023/12/24 05:44:42;;;;;;;2.00;0.90;;;15.60;72.20;16.70;99887.00;;;;5073371;28;20628;-47
2023/12/24 05:47:08;;;;;;;1.43;0.93;;;15.60;72.10;16.60;99894.00;;;;5073581;28;20189;-47
2023/12/24 05:49:37;;;;;;;2.40;1.13;;;15.60;72.10;16.60;99885.00;;;;5067912;28;20705;-47
2023/12/24 05:52:03;;;;;;;1.43;1.23;;;15.60;72.10;16.60;99863.00;;;;5045126;28;20201;-47
2023/12/24 05:54:29;;;;;;;1.27;1.10;;;15.60;72.50;16.60;99880.00;;;;5071410;28;20174;-47
2023/12/24 05:56:54;;;;;;;1.10;1.00;;;15.60;72.40;16.60;99882.00;;;;5077134;28;20255;-48
2023/12/24 05:59:22;;;;;;;2.57;0.93;;;15.60;72.40;16.60;99882.00;;;;5074527;28;20205;-45
2023/12/24 06:01:48;;;;;;;1.10;1.00;;;15.60;72.30;16.60;99878.00;;;;5074727;28;20223;-46
2023/12/24 06:04:13;;;;;;;1.17;1.10;;;15.50;72.40;16.60;99866.00;;;;5062733;28;20181;-46
2023/12/24 06:06:42;;;;;;;1.80;1.20;;;15.60;73.40;16.60;99865.00;;;;5068753;28;20178;-47
2023/12/24 06:09:08;;;;;;;1.20;0.90;;;15.50;72.50;16.60;99880.00;;;;5072856;28;20197;-47
2023/12/24 06:11:34;;;;;;;2.93;1.40;;;15.50;72.60;16.60;99882.00;;;;5067041;28;20220;-47
2023/12/24 06:14:00;;;;;;;0.83;0.83;;;15.50;72.50;16.60;99873.00;;;;5069593;28;20173;-47
2023/12/24 06:16:27;;;;;;;1.10;1.00;;;15.50;72.60;16.60;99882.00;;;;5058651;28;20503;-47
2023/12/24 06:18:53;;;;;;;0.87;0.87;;;15.50;72.60;16.60;99883.00;;;;5077630;28;20205;-47
2023/12/24 06:21:19;;;;;;;1.60;0.90;;;15.50;72.60;16.60;99877.00;;;;5070235;28;20172;-46
2023/12/24 06:23:45;;;;;;;0.77;0.77;;;15.50;72.60;16.60;99889.00;;;;5072663;28;20292;-47
2023/12/24 06:26:11;;;;;;;1.13;1.03;;;15.50;72.60;16.60;99886.00;;;;5063787;28;20665;-47
2023/12/24 06:28:36;;;;;;;2.00;0.87;;;15.50;73.40;16.60;99885.00;;;;5070074;28;20177;-47
2023/12/24 06:31:02;;;;;;;0.77;0.73;;;15.50;72.70;16.60;99879.00;;;;5069462;28;20202;-47
2023/12/24 06:33:28;;;;;;;0.97;0.83;;;15.50;72.60;16.60;99876.00;;;;5069720;28;20174;-47
2023/12/24 06:35:54;;;;;;;1.00;0.70;;;15.50;72.60;16.60;99879.00;;;;5073950;28;20180;-47
2023/12/24 06:38:19;;;;;;;0.83;0.80;;;15.40;72.50;16.60;99885.00;;;;5071080;28;20219;-47
2023/12/24 06:40:45;;;;;;;0.77;0.77;;;15.40;72.50;16.60;99876.00;;;;5069120;28;20792;-47
2023/12/24 06:43:11;;;;;;;1.10;1.10;;;15.50;72.60;16.60;99869.00;;;;5069231;28;20184;-47
2023/12/24 06:45:36;;;;;;;0.90;0.90;;;15.40;72.50;16.60;99874.00;;;;5071321;28;20197;-47
2023/12/24 06:48:03;;;;;;;1.97;1.20;;;15.50;72.60;16.60;99873.00;;;;5073406;28;20176;-46
2023/12/24 06:50:29;;;;;;;1.13;0.87;;;15.50;72.60;16.50;99870.00;;;;5066528;28;20680;-46
2023/12/24 06:52:56;;;;;;;0.83;0.80;;;15.40;72.50;16.50;99868.00;;;;5070283;28;20673;-47
2023/12/24 06:55:21;;;;;;;0.90;0.90;;;15.50;72.60;16.50;99871.00;;;;5073385;28;20222;-46
2023/12/24 06:57:47;;;;;;;0.93;0.93;;;15.40;72.50;16.50;99873.00;;;;5076565;28;20177;-47
2023/12/24 07:00:13;;;;;;;0.70;0.67;;;15.40;72.50;16.50;99873.00;;;;5075093;28;20259;-47
2023/12/24 07:02:39;;;;;;;0.83;0.83;;;15.40;72.50;16.60;99874.00;;;;5050625;28;20257;-47
2023/12/24 07:05:05;;;;;;;0.97;0.90;;;15.40;72.50;16.50;99872.00;;;;5081583;28;20257;-46
2023/12/24 07:07:31;;;;;;;0.50;0.50;;;15.40;72.50;16.50;99874.00;;;;5069342;28;20190;-46
2023/12/24 07:09:57;;;;;;;0.73;0.73;;;15.40;72.50;16.50;99860.00;;;;5077970;28;20349;-46
2023/12/24 07:12:22;;;;;;;1.83;0.80;;;15.40;72.50;16.50;99859.00;;;;5074963;28;20173;-46
2023/12/24 07:14:48;;;;;;;0.63;0.63;;;15.40;72.50;16.50;99871.00;;;;5078286;28;20672;-46
2023/12/24 07:17:14;;;;;;;0.50;0.50;;;15.40;72.50;16.50;99867.00;;;;5071294;28;20251;-46
2023/12/24 07:19:40;;;;;;;0.90;0.87;;;15.40;72.40;16.50;99863.00;;;;5076792;28;20205;-46
2023/12/24 07:22:05;;;;;;;0.50;0.50;;;15.40;72.50;16.50;99861.00;;;;5076219;28;20763;-47
2023/12/24 07:24:31;;;;;;;1.17;0.87;;;15.40;72.50;16.50;99854.00;;;;5069913;28;20244;-47
2023/12/24 07:26:57;;;;;;;1.23;0.87;;;15.40;72.60;16.50;99845.00;;;;5072873;28;20195;-47
2023/12/24 07:29:23;;;;;;;0.80;0.80;;;15.40;72.50;16.50;99844.00;;;;5073899;28;20209;-47
2023/12/24 07:31:48;;;;;;;1.53;0.90;;;15.40;72.50;16.50;99851.00;;;;5074855;28;20181;-47
2023/12/24 07:34:14;;;;;;;0.77;0.77;;;15.40;72.50;16.50;99862.00;;;;5073336;28;20166;-47
2023/12/24 07:36:40;;;;;;;1.10;0.90;;;15.40;72.50;16.50;99848.00;;;;5074515;28;20183;-47
2023/12/24 07:39:06;;;;;;;0.50;0.50;;;15.40;72.50;16.50;99848.00;;;;5077884;28;20201;-46
2023/12/24 07:41:31;;;;;;;0.83;0.53;;;15.40;72.50;16.50;99851.00;;;;5071468;28;20171;-47
2023/12/24 07:43:57;;;;;;;0.70;0.70;;;15.40;72.50;16.50;99855.00;;;;5073462;28;20174;-46
2023/12/24 07:46:23;;;;;;;0.47;0.47;;;15.40;72.40;16.50;99863.00;;;;5072268;28;20187;-47
2023/12/24 07:48:49;;;;;;;0.83;0.60;;;15.40;72.40;16.50;99846.00;;;;5074976;28;20177;-46
2023/12/24 07:51:15;;;;;;;0.70;0.70;;;15.40;72.50;16.50;99840.00;;;;5073468;28;20237;-46
2023/12/24 07:53:41;;;;;;;0.80;0.80;;;15.40;72.50;16.50;99851.00;;;;5072773;28;20224;-46
2023/12/24 07:56:08;;;;;;;0.30;0.30;;;15.40;72.50;16.50;99855.00;;;;5072671;28;20169;-47
2023/12/24 07:58:34;;;;;;;0.77;0.73;;;15.40;72.50;16.40;99855.00;;;;5070908;28;20175;-46
2023/12/24 08:00:59;;;;;;;1.33;0.47;;;15.40;72.40;16.40;99859.00;;;;5071740;28;20194;-48
2023/12/24 08:03:25;;;;;;;0.40;0.40;;;15.40;72.50;16.40;99846.00;;;;5050029;28;20330;-46
2023/12/24 08:05:51;;;;;;;0.70;0.70;;;15.40;72.50;16.40;99850.00;;;;5075347;28;20177;-46
2023/12/24 08:08:17;;;;;;;0.80;0.80;;;15.40;72.40;16.40;99855.00;;;;5072399;28;20173;-46
2023/12/24 08:10:42;;;;;;;0.77;0.77;;;15.40;72.50;16.50;99857.00;;;;5070311;28;20211;-46
2023/12/24 08:13:08;;;;;;;0.97;0.70;;;15.30;72.30;16.40;99848.00;;;;5074480;28;20182;-46
2023/12/24 08:15:34;;;;;;;0.70;0.70;;;15.30;72.30;16.40;99854.00;;;;5071681;28;20261;-47
2023/12/24 08:17:59;;;;;;;0.70;0.50;;;15.30;72.30;16.40;99859.00;;;;5070663;28;20174;-46
2023/12/24 08:20:25;;;;;;;0.60;0.60;;;15.30;72.30;16.40;99851.00;;;;5072115;28;20756;-46
2023/12/24 08:22:51;;;;;;;0.50;0.50;;;15.30;72.50;16.40;99839.00;;;;5073972;28;20178;-46
2023/12/24 08:25:16;;;;;;;0.63;0.63;;;15.30;72.80;16.40;99837.00;;;;5071551;28;20178;-46
2023/12/24 08:27:42;;;;;;;1.13;0.63;;;15.30;72.90;16.40;99852.00;;;;5073642;28;20189;-46
2023/12/24 08:30:09;;;;;;;1.17;0.93;;;15.30;72.80;16.40;99840.00;;;;5074355;28;20213;-46
2023/12/24 08:32:34;;;;;;;0.50;0.50;;;15.30;72.90;16.40;99849.00;;;;5071833;28;20257;-46
2023/12/24 08:35:00;;;;;;;1.20;0.70;;;15.30;73.00;16.20;99845.00;;;;5062568;28;20181;-46
2023/12/24 08:37:26;;;;;;;0.90;0.90;;;15.30;73.40;16.40;99851.00;;;;5071341;28;20181;-52
2023/12/24 08:39:52;;;;;;;0.53;0.53;;;15.30;73.00;16.40;99848.00;;;;5076563;28;20581;-46
2023/12/24 08:42:17;;;;;;;1.93;0.90;;;15.30;73.20;16.40;99832.00;;;;5078522;28;20176;-48
2023/12/24 08:44:43;;;;;;;1.43;1.33;;;15.40;73.30;16.40;99835.00;;;;5069321;28;20792;-46
2023/12/24 08:47:09;;;;;;;2.13;1.30;;;15.40;73.30;16.40;99841.00;;;;5076185;28;20185;-46
2023/12/24 08:49:35;;;;;;;2.63;1.13;;;15.60;73.50;16.40;99848.00;;;;5069463;28;20202;-46
2023/12/24 08:52:00;;;;;;;2.53;0.90;;;15.60;73.30;16.50;99844.00;;;;5073967;28;20188;-46
2023/12/24 08:54:26;;;;;;;2.53;1.07;;;15.70;73.30;16.50;99841.00;;;;5066093;28;20201;-46
2023/12/24 08:56:53;;;;;;;1.00;0.77;;;15.80;73.20;16.60;99845.00;;;;5070456;28;20836;-46
2023/12/24 08:59:18;;;;;;;1.97;1.03;;;15.90;73.00;16.60;99843.00;;;;5070565;28;20198;-45
2023/12/24 09:01:45;;;;;;;1.10;1.00;;;16.00;73.00;16.70;99836.00;;;;5067057;28;20721;-46
2023/12/24 09:04:11;;;;;;;1.23;0.70;;;16.10;72.70;16.80;99849.00;;;;5071987;28;20185;-46
2023/12/24 09:06:37;;;;;;;0.80;0.80;;;16.20;72.60;16.90;99849.00;;;;5071787;28;20652;-46
2023/12/24 09:09:04;;;;;;;0.60;0.60;;;16.40;72.50;17.00;99848.00;;;;5075996;28;20764;-46
2023/12/24 09:11:29;;;;;;;0.77;0.77;;;16.50;72.30;17.10;99842.00;;;;5067979;28;20599;-46
2023/12/24 09:13:55;;;;;;;1.47;0.70;;;16.70;72.10;17.20;99821.00;;;;5068183;28;20198;-46
2023/12/24 09:16:21;;;;;;;0.80;0.80;;;16.70;71.80;17.30;99838.00;;;;5041188;28;20183;-46
2023/12/24 09:18:49;;;;;;;0.70;0.70;;;16.80;71.80;17.40;99838.00;;;;5069397;28;20188;-46
2023/12/24 09:21:15;;;;;;;0.40;0.40;;;17.00;71.60;17.50;99845.00;;;;5070603;28;20258;-46
2023/12/24 09:23:41;;;;;;;0.50;0.50;;;17.10;71.60;17.60;99844.00;;;;5068016;28;20318;-46
2023/12/24 09:26:06;;;;;;;0.70;0.70;;;17.20;71.50;17.70;99835.00;;;;5073000;28;20179;-45
2023/12/24 09:28:32;;;;;;;0.37;0.37;;;17.30;71.40;17.80;99841.00;;;;5069402;28;20175;-46
2023/12/24 09:30:58;;;;;;;0.60;0.60;;;17.40;71.30;17.90;99845.00;;;;5069509;28;20238;-46
2023/12/24 09:33:23;;;;;;;0.50;0.50;;;17.50;71.40;18.00;99849.00;;;;5069782;28;20210;-45
2023/12/24 09:35:49;;;;;;;0.50;0.50;;;17.60;71.10;18.10;99839.00;;;;5073818;28;20533;-47
2023/12/24 09:38:15;;;;;;;0.60;0.60;;;17.70;71.10;18.10;99836.00;;;;5069930;28;20176;-46
2023/12/24 09:40:41;;;;;;;0.70;0.57;;;17.70;71.00;18.20;99831.00;;;;5071767;28;20211;-45
2023/12/24 09:43:08;;;;;;;0.43;0.43;;;17.90;71.10;18.30;99834.00;;;;5073515;28;20180;-46
2023/12/24 09:45:34;;;;;;;2.70;0.90;;;17.90;71.20;18.40;99843.00;;;;5066889;28;20194;-46
2023/12/24 09:48:00;;;;;;;0.70;0.70;;;17.90;71.20;18.40;99834.00;;;;5052028;28;20685;-45
2023/12/24 09:50:26;;;;;;;1.70;0.67;;;18.00;71.40;18.50;99840.00;;;;5069423;28;20198;-45
2023/12/24 09:52:52;;;;;;;0.67;0.33;;;18.10;71.40;18.60;99853.00;;;;5072643;28;20181;-44
2023/12/24 09:55:18;;;;;;;0.60;0.60;;;18.20;71.40;18.70;99856.00;;;;5043517;28;20169;-44
2023/12/24 09:57:43;;;;;;;0.40;0.40;;;18.30;71.30;18.70;99850.00;;;;5070155;28;20786;-45
2023/12/24 10:00:10;;;;;;;0.47;0.47;;;18.40;71.10;18.80;99849.00;;;;5067992;28;20201;-45
2023/12/24 10:02:36;;;;;;;0.63;0.60;;;18.40;71.00;18.90;99845.00;;;;5065573;28;20201;-46
2023/12/24 10:05:06;;;;;;;0.50;0.50;;;18.50;71.10;18.90;99841.00;;;;5066297;28;20231;-45
2023/12/24 10:07:45;;;;;;;0.70;0.60;;;18.50;71.10;19.00;99850.00;;;;5066367;28;20178;-45
2023/12/24 10:10:11;;;;;;;0.63;0.63;;;18.60;71.10;19.10;99843.00;;;;5055335;28;20215;-45
2023/12/24 10:12:37;;;;;;;0.47;0.47;;;18.60;71.10;19.10;99848.00;;;;5057815;28;20201;-45
2023/12/24 10:15:03;;;;;;;0.50;0.50;;;18.60;71.10;19.10;99849.00;;;;5067036;28;20698;-45
2023/12/24 10:17:32;;;;;;;0.43;0.43;;;18.60;71.00;19.20;99837.00;;;;5069925;28;20223;-45
2023/12/24 10:20:03;;;;;;;0.50;0.47;;;18.70;71.10;19.20;99827.00;;;;5067750;28;20669;-46
2023/12/24 10:22:28;;;;;;;5.07;0.80;;;18.70;71.10;19.20;99835.00;;;;5072552;28;20181;-46
2023/12/24 10:25:05;;;;;;;2.40;1.00;;;18.70;71.20;19.30;99839.00;;;;5070940;28;20178;-45
2023/12/24 10:27:31;;;;;;;5.57;0.97;;;18.60;71.20;19.30;99837.00;;;;5043626;28;20221;-45
2023/12/24 10:30:12;;;;;;;3.53;1.13;;;18.60;71.30;19.30;99820.00;;;;5077941;28;20233;-45
2023/12/24 10:32:40;;;;;;;3.30;0.90;;;18.60;71.40;19.30;99826.00;;;;5082730;28;20166;-45
2023/12/24 10:35:07;;;;;;;1.87;0.70;;;18.70;71.80;19.30;99822.00;;;;5079767;28;20210;-45
2023/12/24 10:37:33;;;;;;;1.27;0.67;;;18.70;72.00;19.30;99812.00;;;;5071308;28;20179;-45
2023/12/24 10:40:10;;;;;;;1.37;1.00;;;18.70;72.10;19.40;99818.00;;;;5056939;28;20202;-46
2023/12/24 10:42:39;;;;;;;4.37;0.97;;;18.80;72.50;19.40;99827.00;;;;5073044;28;20276;-45
2023/12/24 10:45:08;;;;;;;0.63;0.63;;;18.80;72.60;19.40;99811.00;;;;5073289;28;20252;-45
2023/12/24 10:47:35;;;;;;;4.33;0.93;;;18.80;72.50;19.40;99798.00;;;;5074100;28;20186;-46